sensor_id;sensor_type;location;lat;lon;timestamp;pressure;altitude;pressure_sealevel;temperature;humidity
44659;BME280;30378;50.186;8.644;2022-07-22T00:00:06;100679.69;;;16.55;100.00
44659;BME280;30378;50.186;8.644;2022-07-22T00:02:35;100679.03;;;16.50;100.00
44659;BME280;30378;50.186;8.644;2022-07-22T00:05:02;100686.03;;;16.56;100.00
44659;BME280;30378;50.186;8.644;2022-07-22T00:07:29;100688.19;;;16.59;100.00
44659;BME280;30378;50.186;8.644;2022-07-22T00:09:56;100689.47;;;16.53;100.00
44659;BME280;30378;50.186;8.644;2022-07-22T00:12:23;100690.78;;;16.46;100.00
44659;BME280;30378;50.186;8.644;2022-07-22T00:14:50;100688.00;;;16.46;100.00
44659;BME280;30378;50.186;8.644;2022-07-22T00:17:17;100681.81;;;16.50;100.00
44659;BME280;30378;50.186;8.644;2022-07-22T00:19:44;100684.59;;;16.50;100.00
44659;BME280;30378;50.186;8.644;2022-07-22T00:22:11;100684.59;;;16.50;100.00
44659;BME280;30378;50.186;8.644;2022-07-22T00:24:39;100675.78;;;16.48;100.00
44659;BME280;30378;50.186;8.644;2022-07-22T00:27:06;100683.75;;;16.40;100.00
44659;BME280;30378;50.186;8.644;2022-07-22T00:29:32;100677.38;;;16.49;100.00
44659;BME280;30378;50.186;8.644;2022-07-22T00:32:00;100684.25;;;16.60;100.00
44659;BME280;30378;50.186;8.644;2022-07-22T00:34:27;100677.84;;;16.68;100.00
44659;BME280;30378;50.186;8.644;2022-07-22T00:36:54;100679.19;;;16.71;100.00
44659;BME280;30378;50.186;8.644;2022-07-22T00:39:21;100671.47;;;16.76;100.00
44659;BME280;30378;50.186;8.644;2022-07-22T00:41:49;100667.91;;;16.67;100.00
44659;BME280;30378;50.186;8.644;2022-07-22T00:44:16;100668.09;;;16.71;100.00
44659;BME280;30378;50.186;8.644;2022-07-22T00:46:43;100657.78;;;16.71;100.00
44659;BME280;30378;50.186;8.644;2022-07-22T00:49:10;100661.03;;;16.73;100.00
44659;BME280;30378;50.186;8.644;2022-07-22T00:51:38;100656.94;;;16.79;100.00
44659;BME280;30378;50.186;8.644;2022-07-22T00:54:06;100645.53;;;16.72;100.00
44659;BME280;30378;50.186;8.644;2022-07-22T00:56:33;100648.66;;;16.71;100.00
44659;BME280;30378;50.186;8.644;2022-07-22T00:59:03;100656.16;;;16.70;100.00
44659;BME280;30378;50.186;8.644;2022-07-22T01:01:31;100658.75;;;16.66;100.00
44659;BME280;30378;50.186;8.644;2022-07-22T01:03:58;100655.38;;;16.61;100.00
44659;BME280;30378;50.186;8.644;2022-07-22T01:06:28;100656.84;;;16.50;100.00
44659;BME280;30378;50.186;8.644;2022-07-22T01:08:55;100659.44;;;16.46;100.00
44659;BME280;30378;50.186;8.644;2022-07-22T01:11:24;100662.53;;;16.44;100.00
44659;BME280;30378;50.186;8.644;2022-07-22T01:13:53;100663.53;;;16.40;100.00
44659;BME280;30378;50.186;8.644;2022-07-22T01:16:21;100662.56;;;16.36;100.00
44659;BME280;30378;50.186;8.644;2022-07-22T01:18:48;100658.81;;;16.32;100.00
44659;BME280;30378;50.186;8.644;2022-07-22T01:21:16;100662.91;;;16.25;100.00
44659;BME280;30378;50.186;8.644;2022-07-22T01:23:44;100661.56;;;16.23;100.00
44659;BME280;30378;50.186;8.644;2022-07-22T01:26:12;100667.31;;;16.18;100.00
44659;BME280;30378;50.186;8.644;2022-07-22T01:28:39;100671.88;;;16.14;100.00
44659;BME280;30378;50.186;8.644;2022-07-22T01:31:07;100667.44;;;16.13;100.00
44659;BME280;30378;50.186;8.644;2022-07-22T01:33:35;100673.31;;;16.11;100.00
44659;BME280;30378;50.186;8.644;2022-07-22T01:36:03;100668.59;;;16.12;100.00
44659;BME280;30378;50.186;8.644;2022-07-22T01:38:31;100669.59;;;16.16;100.00
44659;BME280;30378;50.186;8.644;2022-07-22T01:40:58;100675.13;;;16.16;100.00
44659;BME280;30378;50.186;8.644;2022-07-22T01:43:27;100666.97;;;16.11;100.00
44659;BME280;30378;50.186;8.644;2022-07-22T01:45:54;100663.69;;;16.09;100.00
44659;BME280;30378;50.186;8.644;2022-07-22T01:48:21;100665.84;;;16.12;100.00
44659;BME280;30378;50.186;8.644;2022-07-22T01:50:49;100669.91;;;16.05;100.00
44659;BME280;30378;50.186;8.644;2022-07-22T01:53:18;100664.81;;;15.99;100.00
44659;BME280;30378;50.186;8.644;2022-07-22T01:55:46;100660.09;;;15.99;100.00
44659;BME280;30378;50.186;8.644;2022-07-22T01:58:15;100664.66;;;15.95;100.00
44659;BME280;30378;50.186;8.644;2022-07-22T02:00:42;100663.69;;;15.91;100.00
44659;BME280;30378;50.186;8.644;2022-07-22T02:03:10;100665.31;;;15.92;100.00
44659;BME280;30378;50.186;8.644;2022-07-22T02:05:38;100665.97;;;15.89;100.00
44659;BME280;30378;50.186;8.644;2022-07-22T02:08:16;100666.44;;;15.91;100.00
44659;BME280;30378;50.186;8.644;2022-07-22T02:11:03;100662.56;;;15.92;100.00
44659;BME280;30378;50.186;8.644;2022-07-22T02:13:31;100668.41;;;15.91;100.00
44659;BME280;30378;50.186;8.644;2022-07-22T02:15:58;100662.38;;;15.89;100.00
44659;BME280;30378;50.186;8.644;2022-07-22T02:18:26;100665.47;;;15.87;100.00
44659;BME280;30378;50.186;8.644;2022-07-22T02:20:53;100661.06;;;15.86;100.00
44659;BME280;30378;50.186;8.644;2022-07-22T02:23:20;100668.72;;;15.80;100.00
44659;BME280;30378;50.186;8.644;2022-07-22T02:25:47;100663.50;;;15.79;100.00
44659;BME280;30378;50.186;8.644;2022-07-22T02:28:16;100659.53;;;15.71;100.00
44659;BME280;30378;50.186;8.644;2022-07-22T02:30:43;100670.63;;;15.71;100.00
44659;BME280;30378;50.186;8.644;2022-07-22T02:33:11;100665.09;;;15.71;100.00
44659;BME280;30378;50.186;8.644;2022-07-22T02:35:40;100669.00;;;15.70;100.00
44659;BME280;30378;50.186;8.644;2022-07-22T02:38:07;100663.28;;;15.66;100.00
44659;BME280;30378;50.186;8.644;2022-07-22T02:40:35;100668.81;;;15.66;100.00
44659;BME280;30378;50.186;8.644;2022-07-22T02:43:03;100667.84;;;15.62;100.00
44659;BME280;30378;50.186;8.644;2022-07-22T02:45:33;100670.94;;;15.61;100.00
44659;BME280;30378;50.186;8.644;2022-07-22T02:48:00;100673.69;;;15.52;100.00
44659;BME280;30378;50.186;8.644;2022-07-22T02:50:29;100680.16;;;15.47;100.00
44659;BME280;30378;50.186;8.644;2022-07-22T02:52:56;100684.03;;;15.38;100.00
44659;BME280;30378;50.186;8.644;2022-07-22T02:55:26;100685.31;;;15.32;100.00
44659;BME280;30378;50.186;8.644;2022-07-22T02:57:55;100689.88;;;15.27;100.00
44659;BME280;30378;50.186;8.644;2022-07-22T03:00:22;100696.41;;;15.32;100.00
44659;BME280;30378;50.186;8.644;2022-07-22T03:02:50;100695.53;;;15.22;100.00
44659;BME280;30378;50.186;8.644;2022-07-22T03:05:17;100703.34;;;15.20;100.00
44659;BME280;30378;50.186;8.644;2022-07-22T03:07:51;100705.13;;;15.16;100.00
44659;BME280;30378;50.186;8.644;2022-07-22T03:10:19;100712.91;;;15.14;100.00
44659;BME280;30378;50.186;8.644;2022-07-22T03:12:48;100704.78;;;15.09;100.00
44659;BME280;30378;50.186;8.644;2022-07-22T03:15:16;100709.44;;;15.00;100.00
44659;BME280;30378;50.186;8.644;2022-07-22T03:17:43;100710.81;;;14.88;100.00
44659;BME280;30378;50.186;8.644;2022-07-22T03:20:11;100717.13;;;14.80;100.00
44659;BME280;30378;50.186;8.644;2022-07-22T03:22:38;100721.59;;;14.67;100.00
44659;BME280;30378;50.186;8.644;2022-07-22T03:25:05;100726.28;;;14.67;100.00
44659;BME280;30378;50.186;8.644;2022-07-22T03:27:32;100724.91;;;14.56;100.00
44659;BME280;30378;50.186;8.644;2022-07-22T03:30:00;100723.03;;;14.65;100.00
44659;BME280;30378;50.186;8.644;2022-07-22T03:32:29;100736.69;;;14.61;100.00
44659;BME280;30378;50.186;8.644;2022-07-22T03:34:57;100733.50;;;14.54;100.00
44659;BME280;30378;50.186;8.644;2022-07-22T03:37:30;100733.00;;;14.52;100.00
44659;BME280;30378;50.186;8.644;2022-07-22T03:39:56;100732.69;;;14.54;100.00
44659;BME280;30378;50.186;8.644;2022-07-22T03:42:24;100730.66;;;14.59;100.00
44659;BME280;30378;50.186;8.644;2022-07-22T03:44:51;100738.38;;;14.71;100.00
44659;BME280;30378;50.186;8.644;2022-07-22T03:47:20;100742.97;;;14.76;100.00
44659;BME280;30378;50.186;8.644;2022-07-22T03:49:47;100744.28;;;14.78;100.00
44659;BME280;30378;50.186;8.644;2022-07-22T03:52:19;100747.75;;;14.84;100.00
44659;BME280;30378;50.186;8.644;2022-07-22T03:54:46;100745.88;;;14.93;100.00
44659;BME280;30378;50.186;8.644;2022-07-22T03:57:13;100741.03;;;14.99;100.00
44659;BME280;30378;50.186;8.644;2022-07-22T03:59:41;100755.09;;;15.11;100.00
44659;BME280;30378;50.186;8.644;2022-07-22T04:02:08;100753.06;;;15.25;100.00
44659;BME280;30378;50.186;8.644;2022-07-22T04:04:36;100743.53;;;15.40;100.00
44659;BME280;30378;50.186;8.644;2022-07-22T04:07:03;100732.19;;;15.59;100.00
44659;BME280;30378;50.186;8.644;2022-07-22T04:09:34;100736.69;;;15.78;100.00
44659;BME280;30378;50.186;8.644;2022-07-22T04:12:02;100729.38;;;15.91;100.00
44659;BME280;30378;50.186;8.644;2022-07-22T04:14:35;100730.91;;;16.05;100.00
44659;BME280;30378;50.186;8.644;2022-07-22T04:17:02;100730.91;;;16.14;100.00
44659;BME280;30378;50.186;8.644;2022-07-22T04:19:29;100713.97;;;16.33;100.00
44659;BME280;30378;50.186;8.644;2022-07-22T04:21:58;100711.50;;;16.49;100.00
44659;BME280;30378;50.186;8.644;2022-07-22T04:24:28;100695.19;;;16.65;100.00
44659;BME280;30378;50.186;8.644;2022-07-22T04:26:56;100683.41;;;16.85;100.00
44659;BME280;30378;50.186;8.644;2022-07-22T04:29:23;100678.94;;;17.02;100.00
44659;BME280;30378;50.186;8.644;2022-07-22T04:31:51;100676.44;;;17.27;100.00
44659;BME280;30378;50.186;8.644;2022-07-22T04:34:19;100670.34;;;17.33;100.00
44659;BME280;30378;50.186;8.644;2022-07-22T04:36:48;100663.22;;;17.53;100.00
44659;BME280;30378;50.186;8.644;2022-07-22T04:39:16;100660.88;;;17.64;100.00
44659;BME280;30378;50.186;8.644;2022-07-22T04:41:53;100660.13;;;17.84;100.00
44659;BME280;30378;50.186;8.644;2022-07-22T04:44:21;100655.94;;;17.99;100.00
44659;BME280;30378;50.186;8.644;2022-07-22T04:46:48;100654.44;;;18.02;100.00
44659;BME280;30378;50.186;8.644;2022-07-22T04:49:16;100659.59;;;18.12;100.00
44659;BME280;30378;50.186;8.644;2022-07-22T04:51:43;100652.56;;;18.15;100.00
44659;BME280;30378;50.186;8.644;2022-07-22T04:54:17;100647.47;;;18.17;100.00
44659;BME280;30378;50.186;8.644;2022-07-22T04:56:44;100645.88;;;18.28;100.00
44659;BME280;30378;50.186;8.644;2022-07-22T04:59:12;100641.53;;;18.39;100.00
44659;BME280;30378;50.186;8.644;2022-07-22T05:01:39;100652.19;;;18.37;100.00
44659;BME280;30378;50.186;8.644;2022-07-22T05:04:07;100646.44;;;18.42;100.00
44659;BME280;30378;50.186;8.644;2022-07-22T05:06:37;100643.25;;;18.65;100.00
44659;BME280;30378;50.186;8.644;2022-07-22T05:09:04;100637.53;;;18.95;100.00
44659;BME280;30378;50.186;8.644;2022-07-22T05:11:32;100640.38;;;19.19;100.00
44659;BME280;30378;50.186;8.644;2022-07-22T05:13:59;100643.13;;;19.56;100.00
44659;BME280;30378;50.186;8.644;2022-07-22T05:16:26;100646.53;;;19.74;100.00
44659;BME280;30378;50.186;8.644;2022-07-22T05:18:53;100647.28;;;20.68;100.00
44659;BME280;30378;50.186;8.644;2022-07-22T05:21:20;100648.56;;;20.87;100.00
44659;BME280;30378;50.186;8.644;2022-07-22T05:23:47;100658.78;;;23.11;100.00
44659;BME280;30378;50.186;8.644;2022-07-22T05:26:16;100671.13;;;24.40;100.00
44659;BME280;30378;50.186;8.644;2022-07-22T05:28:43;100665.84;;;25.02;100.00
44659;BME280;30378;50.186;8.644;2022-07-22T05:31:10;100677.16;;;25.54;96.63
44659;BME280;30378;50.186;8.644;2022-07-22T05:33:38;100687.13;;;24.66;100.00
44659;BME280;30378;50.186;8.644;2022-07-22T05:36:13;100673.53;;;23.08;100.00
44659;BME280;30378;50.186;8.644;2022-07-22T05:38:45;100667.72;;;22.19;100.00
44659;BME280;30378;50.186;8.644;2022-07-22T05:41:12;100670.91;;;22.17;100.00
44659;BME280;30378;50.186;8.644;2022-07-22T05:43:39;100667.19;;;23.61;100.00
44659;BME280;30378;50.186;8.644;2022-07-22T05:46:08;100675.59;;;24.44;100.00
44659;BME280;30378;50.186;8.644;2022-07-22T05:48:35;100675.22;;;25.69;96.56
44659;BME280;30378;50.186;8.644;2022-07-22T05:51:02;100677.81;;;25.37;95.58
44659;BME280;30378;50.186;8.644;2022-07-22T05:53:31;100678.44;;;26.34;88.53
44659;BME280;30378;50.186;8.644;2022-07-22T05:55:58;100674.81;;;26.29;88.63
44659;BME280;30378;50.186;8.644;2022-07-22T05:58:30;100674.28;;;27.91;64.46
44659;BME280;30378;50.186;8.644;2022-07-22T06:00:58;100668.81;;;28.50;64.01
44659;BME280;30378;50.186;8.644;2022-07-22T06:03:25;100669.16;;;29.30;56.95
44659;BME280;30378;50.186;8.644;2022-07-22T06:05:52;100672.84;;;30.44;54.33
44659;BME280;30378;50.186;8.644;2022-07-22T06:08:19;100671.06;;;30.57;50.17
44659;BME280;30378;50.186;8.644;2022-07-22T06:10:50;100671.72;;;30.38;51.65
44659;BME280;30378;50.186;8.644;2022-07-22T06:13:18;100673.66;;;30.44;52.98
44659;BME280;30378;50.186;8.644;2022-07-22T06:15:45;100665.72;;;30.63;48.22
44659;BME280;30378;50.186;8.644;2022-07-22T06:18:12;100669.50;;;31.11;47.05
44659;BME280;30378;50.186;8.644;2022-07-22T06:20:40;100661.84;;;32.02;45.16
44659;BME280;30378;50.186;8.644;2022-07-22T06:23:07;100666.53;;;31.41;45.26
44659;BME280;30378;50.186;8.644;2022-07-22T06:25:35;100662.53;;;31.86;44.99
44659;BME280;30378;50.186;8.644;2022-07-22T06:28:10;100654.69;;;32.34;44.21
44659;BME280;30378;50.186;8.644;2022-07-22T06:30:38;100650.75;;;32.28;43.82
44659;BME280;30378;50.186;8.644;2022-07-22T06:33:05;100653.06;;;33.06;43.38
44659;BME280;30378;50.186;8.644;2022-07-22T06:35:33;100657.91;;;31.72;44.37
44659;BME280;30378;50.186;8.644;2022-07-22T06:38:00;100661.78;;;32.26;44.09
44659;BME280;30378;50.186;8.644;2022-07-22T06:40:34;100661.47;;;33.29;42.78
44659;BME280;30378;50.186;8.644;2022-07-22T06:43:21;100650.16;;;32.56;43.45
44659;BME280;30378;50.186;8.644;2022-07-22T06:46:07;100653.47;;;31.71;42.33
44659;BME280;30378;50.186;8.644;2022-07-22T06:48:50;100649.31;;;32.19;42.87
44659;BME280;30378;50.186;8.644;2022-07-22T06:51:17;100647.06;;;33.20;40.45
44659;BME280;30378;50.186;8.644;2022-07-22T06:53:44;100655.91;;;32.73;41.27
44659;BME280;30378;50.186;8.644;2022-07-22T06:56:11;100654.94;;;34.07;39.29
44659;BME280;30378;50.186;8.644;2022-07-22T06:58:41;100654.88;;;33.65;40.36
44659;BME280;30378;50.186;8.644;2022-07-22T07:01:10;100659.03;;;32.78;40.41
44659;BME280;30378;50.186;8.644;2022-07-22T07:03:57;100653.41;;;31.51;42.80
44659;BME280;30378;50.186;8.644;2022-07-22T07:06:24;100655.19;;;32.09;41.91
44659;BME280;30378;50.186;8.644;2022-07-22T07:09:11;100657.69;;;32.99;41.23
44659;BME280;30378;50.186;8.644;2022-07-22T07:11:41;100650.03;;;30.20;44.42
44659;BME280;30378;50.186;8.644;2022-07-22T07:14:15;100654.06;;;31.12;45.57
44659;BME280;30378;50.186;8.644;2022-07-22T07:16:43;100647.44;;;29.61;47.55
44659;BME280;30378;50.186;8.644;2022-07-22T07:19:11;100650.72;;;28.33;48.33
44659;BME280;30378;50.186;8.644;2022-07-22T07:21:38;100642.41;;;28.78;48.92
44659;BME280;30378;50.186;8.644;2022-07-22T07:24:06;100633.13;;;26.93;58.54
44659;BME280;30378;50.186;8.644;2022-07-22T07:26:33;100634.31;;;26.74;61.82
44659;BME280;30378;50.186;8.644;2022-07-22T07:29:00;100635.34;;;30.33;54.39
44659;BME280;30378;50.186;8.644;2022-07-22T07:31:31;100627.78;;;32.18;44.59
44659;BME280;30378;50.186;8.644;2022-07-22T07:34:01;100629.97;;;33.20;41.66
44659;BME280;30378;50.186;8.644;2022-07-22T07:36:28;100627.50;;;33.22;44.38
44659;BME280;30378;50.186;8.644;2022-07-22T07:38:56;100623.97;;;34.22;40.33
44659;BME280;30378;50.186;8.644;2022-07-22T07:41:23;100627.63;;;33.31;40.13
44659;BME280;30378;50.186;8.644;2022-07-22T07:43:51;100623.03;;;32.32;40.51
44659;BME280;30378;50.186;8.644;2022-07-22T07:46:19;100613.88;;;32.04;41.18
44659;BME280;30378;50.186;8.644;2022-07-22T07:48:46;100614.66;;;29.18;44.89
44659;BME280;30378;50.186;8.644;2022-07-22T07:51:15;100621.56;;;29.17;46.73
44659;BME280;30378;50.186;8.644;2022-07-22T07:53:42;100619.94;;;30.92;48.03
44659;BME280;30378;50.186;8.644;2022-07-22T07:56:09;100603.53;;;32.14;41.85
44659;BME280;30378;50.186;8.644;2022-07-22T07:58:36;100609.94;;;29.88;44.94
44659;BME280;30378;50.186;8.644;2022-07-22T08:01:05;100615.00;;;26.97;52.56
44659;BME280;30378;50.186;8.644;2022-07-22T08:03:33;100613.41;;;27.03;56.68
44659;BME280;30378;50.186;8.644;2022-07-22T08:06:01;100611.72;;;27.96;57.88
44659;BME280;30378;50.186;8.644;2022-07-22T08:08:29;100614.56;;;26.59;53.70
44659;BME280;30378;50.186;8.644;2022-07-22T08:11:02;100614.78;;;26.18;59.06
44659;BME280;30378;50.186;8.644;2022-07-22T08:13:29;100609.00;;;27.38;56.29
44659;BME280;30378;50.186;8.644;2022-07-22T08:16:14;100608.47;;;28.78;51.05
44659;BME280;30378;50.186;8.644;2022-07-22T08:18:42;100605.69;;;29.72;54.35
44659;BME280;30378;50.186;8.644;2022-07-22T08:21:11;100605.19;;;30.46;46.75
44659;BME280;30378;50.186;8.644;2022-07-22T08:24:08;100603.16;;;31.25;48.01
44659;BME280;30378;50.186;8.644;2022-07-22T08:26:36;100599.03;;;31.29;47.65
44659;BME280;30378;50.186;8.644;2022-07-22T08:29:04;100603.16;;;31.72;43.58
44659;BME280;30378;50.186;8.644;2022-07-22T08:31:33;100605.53;;;30.17;46.88
44659;BME280;30378;50.186;8.644;2022-07-22T08:34:05;100601.34;;;32.21;46.21
44659;BME280;30378;50.186;8.644;2022-07-22T08:36:32;100597.72;;;31.34;43.74
44659;BME280;30378;50.186;8.644;2022-07-22T08:38:59;100600.28;;;31.52;45.14
44659;BME280;30378;50.186;8.644;2022-07-22T08:41:28;100592.16;;;31.94;43.55
44659;BME280;30378;50.186;8.644;2022-07-22T08:44:00;100590.38;;;32.76;43.67
44659;BME280;30378;50.186;8.644;2022-07-22T08:46:28;100591.06;;;31.88;43.46
44659;BME280;30378;50.186;8.644;2022-07-22T08:49:16;100588.91;;;32.68;40.50
44659;BME280;30378;50.186;8.644;2022-07-22T08:52:13;100577.34;;;32.22;45.76
44659;BME280;30378;50.186;8.644;2022-07-22T08:54:47;100582.19;;;30.68;44.94
44659;BME280;30378;50.186;8.644;2022-07-22T08:57:18;100587.41;;;30.96;44.49
44659;BME280;30378;50.186;8.644;2022-07-22T08:59:56;100581.31;;;30.13;52.20
44659;BME280;30378;50.186;8.644;2022-07-22T09:02:24;100579.16;;;29.52;45.87
44659;BME280;30378;50.186;8.644;2022-07-22T09:07:33;100580.06;;;28.93;50.26
44659;BME280;30378;50.186;8.644;2022-07-22T09:10:10;100579.25;;;29.82;46.93
44659;BME280;30378;50.186;8.644;2022-07-22T09:12:59;100588.63;;;28.89;47.31
44659;BME280;30378;50.186;8.644;2022-07-22T09:15:53;100586.66;;;28.79;45.98
44659;BME280;30378;50.186;8.644;2022-07-22T09:18:46;100585.19;;;27.46;52.28
44659;BME280;30378;50.186;8.644;2022-07-22T09:21:32;100586.84;;;28.50;49.59
44659;BME280;30378;50.186;8.644;2022-07-22T09:24:29;100578.59;;;29.67;50.59
44659;BME280;30378;50.186;8.644;2022-07-22T09:27:26;100580.66;;;27.81;49.17
44659;BME280;30378;50.186;8.644;2022-07-22T09:30:17;100576.75;;;27.36;53.61
44659;BME280;30378;50.186;8.644;2022-07-22T09:32:52;100570.28;;;27.49;52.94
44659;BME280;30378;50.186;8.644;2022-07-22T09:35:39;100574.84;;;30.12;54.89
44659;BME280;30378;50.186;8.644;2022-07-22T09:38:10;100570.84;;;30.68;50.44
44659;BME280;30378;50.186;8.644;2022-07-22T09:40:44;100564.75;;;31.84;49.55
44659;BME280;30378;50.186;8.644;2022-07-22T09:43:14;100576.75;;;28.53;46.31
44659;BME280;30378;50.186;8.644;2022-07-22T09:45:56;100567.00;;;27.62;49.56
44659;BME280;30378;50.186;8.644;2022-07-22T09:48:42;100567.09;;;27.33;53.04
44659;BME280;30378;50.186;8.644;2022-07-22T09:51:17;100560.50;;;27.86;50.68
44659;BME280;30378;50.186;8.644;2022-07-22T09:54:09;100559.41;;;26.90;52.57
44659;BME280;30378;50.186;8.644;2022-07-22T09:56:37;100552.56;;;27.09;53.59
44659;BME280;30378;50.186;8.644;2022-07-22T09:59:05;100551.78;;;27.05;53.29
44659;BME280;30378;50.186;8.644;2022-07-22T10:01:53;100549.38;;;26.86;55.30
44659;BME280;30378;50.186;8.644;2022-07-22T10:04:21;100540.41;;;27.56;54.44
44659;BME280;30378;50.186;8.644;2022-07-22T10:06:51;100541.63;;;26.33;56.48
44659;BME280;30378;50.186;8.644;2022-07-22T10:09:24;100536.13;;;28.21;54.37
44659;BME280;30378;50.186;8.644;2022-07-22T10:11:52;100533.59;;;27.42;51.79
44659;BME280;30378;50.186;8.644;2022-07-22T10:14:23;100531.94;;;27.56;53.67
44659;BME280;30378;50.186;8.644;2022-07-22T10:16:56;100532.22;;;28.01;51.85
44659;BME280;30378;50.186;8.644;2022-07-22T10:19:25;100526.78;;;28.91;53.67
44659;BME280;30378;50.186;8.644;2022-07-22T10:21:52;100517.38;;;30.66;53.75
44659;BME280;30378;50.186;8.644;2022-07-22T10:24:19;100517.44;;;30.86;51.86
44659;BME280;30378;50.186;8.644;2022-07-22T10:26:58;100514.78;;;31.66;48.27
44659;BME280;30378;50.186;8.644;2022-07-22T10:29:41;100518.47;;;31.63;45.56
44659;BME280;30378;50.186;8.644;2022-07-22T10:40:18;100500.63;;;28.17;52.15
44659;BME280;30378;50.186;8.644;2022-07-22T10:45:30;100515.84;;;30.03;46.47
44659;BME280;30378;50.186;8.644;2022-07-22T10:48:05;100508.03;;;27.93;49.91
44659;BME280;30378;50.186;8.644;2022-07-22T10:55:33;100502.13;;;27.51;53.61
44659;BME280;30378;50.186;8.644;2022-07-22T11:01:01;100492.97;;;29.18;54.24
44659;BME280;30378;50.186;8.644;2022-07-22T11:03:30;100496.13;;;28.26;49.36
44659;BME280;30378;50.186;8.644;2022-07-22T11:06:20;100489.94;;;29.36;51.91
44659;BME280;30378;50.186;8.644;2022-07-22T11:08:52;100479.22;;;30.94;52.22
44659;BME280;30378;50.186;8.644;2022-07-22T11:14:35;100472.59;;;31.65;51.63
44659;BME280;30378;50.186;8.644;2022-07-22T11:17:08;100465.78;;;30.51;43.65
44659;BME280;30378;50.186;8.644;2022-07-22T11:19:36;100474.66;;;29.30;45.75
44659;BME280;30378;50.186;8.644;2022-07-22T11:22:08;100470.16;;;28.46;48.04
44659;BME280;30378;50.186;8.644;2022-07-22T11:24:37;100467.97;;;28.12;50.10
44659;BME280;30378;50.186;8.644;2022-07-22T11:27:09;100465.72;;;30.28;47.58
44659;BME280;30378;50.186;8.644;2022-07-22T11:29:38;100469.97;;;28.71;46.54
44659;BME280;30378;50.186;8.644;2022-07-22T11:32:08;100456.75;;;28.99;49.51
44659;BME280;30378;50.186;8.644;2022-07-22T11:34:38;100453.59;;;30.00;47.79
44659;BME280;30378;50.186;8.644;2022-07-22T11:37:05;100455.41;;;29.18;44.26
44659;BME280;30378;50.186;8.644;2022-07-22T11:39:32;100445.28;;;28.26;46.62
44659;BME280;30378;50.186;8.644;2022-07-22T11:41:59;100446.47;;;28.29;46.18
44659;BME280;30378;50.186;8.644;2022-07-22T11:44:29;100437.78;;;28.58;46.76
44659;BME280;30378;50.186;8.644;2022-07-22T11:46:57;100437.31;;;28.14;47.16
44659;BME280;30378;50.186;8.644;2022-07-22T11:49:30;100425.72;;;28.50;46.58
44659;BME280;30378;50.186;8.644;2022-07-22T11:51:57;100418.22;;;28.78;48.92
44659;BME280;30378;50.186;8.644;2022-07-22T11:54:24;100415.81;;;29.11;48.50
44659;BME280;30378;50.186;8.644;2022-07-22T11:56:51;100424.72;;;29.78;44.60
44659;BME280;30378;50.186;8.644;2022-07-22T11:59:22;100427.94;;;29.15;45.54
44659;BME280;30378;50.186;8.644;2022-07-22T12:01:49;100420.16;;;29.57;49.14
44659;BME280;30378;50.186;8.644;2022-07-22T12:04:22;100412.63;;;30.55;48.17
44659;BME280;30378;50.186;8.644;2022-07-22T12:06:50;100413.34;;;31.07;47.52
44659;BME280;30378;50.186;8.644;2022-07-22T12:09:23;100411.50;;;31.93;47.44
44659;BME280;30378;50.186;8.644;2022-07-22T12:11:53;100409.97;;;30.92;43.34
44659;BME280;30378;50.186;8.644;2022-07-22T12:14:23;100418.66;;;29.49;42.92
44659;BME280;30378;50.186;8.644;2022-07-22T12:17:06;100416.44;;;30.45;46.03
44659;BME280;30378;50.186;8.644;2022-07-22T12:19:35;100413.25;;;30.16;41.93
44659;BME280;30378;50.186;8.644;2022-07-22T12:22:09;100406.56;;;29.44;42.54
44659;BME280;30378;50.186;8.644;2022-07-22T12:24:38;100411.38;;;29.48;44.98
44659;BME280;30378;50.186;8.644;2022-07-22T12:27:11;100402.91;;;30.76;44.45
44659;BME280;30378;50.186;8.644;2022-07-22T12:32:17;100408.13;;;29.49;43.19
44659;BME280;30378;50.186;8.644;2022-07-22T12:34:59;100396.78;;;29.49;43.39
44659;BME280;30378;50.186;8.644;2022-07-22T12:37:28;100393.47;;;31.47;47.17
44659;BME280;30378;50.186;8.644;2022-07-22T12:40:06;100388.66;;;31.03;41.59
44659;BME280;30378;50.186;8.644;2022-07-22T12:42:37;100393.75;;;29.94;42.70
44659;BME280;30378;50.186;8.644;2022-07-22T12:45:11;100385.63;;;29.00;42.91
44659;BME280;30378;50.186;8.644;2022-07-22T12:50:44;100376.22;;;29.11;43.52
44659;BME280;30378;50.186;8.644;2022-07-22T12:53:20;100380.31;;;28.72;45.20
44659;BME280;30378;50.186;8.644;2022-07-22T12:55:52;100375.53;;;28.16;45.10
44659;BME280;30378;50.186;8.644;2022-07-22T12:58:19;100379.03;;;28.31;45.78
44659;BME280;30378;50.186;8.644;2022-07-22T13:00:51;100372.38;;;28.03;44.50
44659;BME280;30378;50.186;8.644;2022-07-22T13:03:19;100362.09;;;28.73;43.96
44659;BME280;30378;50.186;8.644;2022-07-22T13:05:48;100364.50;;;28.74;42.56
44659;BME280;30378;50.186;8.644;2022-07-22T13:08:16;100363.28;;;29.44;42.07
44659;BME280;30378;50.186;8.644;2022-07-22T13:10:44;100360.66;;;29.30;42.41
44659;BME280;30378;50.186;8.644;2022-07-22T13:13:11;100349.16;;;29.71;42.93
44659;BME280;30378;50.186;8.644;2022-07-22T13:15:38;100347.13;;;29.44;40.26
44659;BME280;30378;50.186;8.644;2022-07-22T13:18:05;100346.78;;;29.39;41.10
44659;BME280;30378;50.186;8.644;2022-07-22T13:20:33;100342.75;;;29.67;41.83
44659;BME280;30378;50.186;8.644;2022-07-22T13:23:00;100338.81;;;29.88;42.21
44659;BME280;30378;50.186;8.644;2022-07-22T13:25:27;100335.97;;;29.30;40.80
44659;BME280;30378;50.186;8.644;2022-07-22T13:27:54;100348.84;;;29.00;41.49
44659;BME280;30378;50.186;8.644;2022-07-22T13:30:22;100332.03;;;30.29;43.08